sensor_id;sensor_type;location;lat;lon;timestamp;temperature;humidity
13251;DHT22;6692;50.710;7.180;2023-04-25T00:01:02;9.40;99.90
13251;DHT22;6692;50.710;7.180;2023-04-25T00:03:02;9.40;99.90
13251;DHT22;6692;50.710;7.180;2023-04-25T00:05:03;9.40;99.90
13251;DHT22;6692;50.710;7.180;2023-04-25T00:07:04;9.30;99.90
13251;DHT22;6692;50.710;7.180;2023-04-25T00:09:05;9.30;99.90
13251;DHT22;6692;50.710;7.180;2023-04-25T00:11:06;9.30;99.90
13251;DHT22;6692;50.710;7.180;2023-04-25T00:13:06;9.30;99.90
13251;DHT22;6692;50.710;7.180;2023-04-25T00:15:07;9.30;99.90
13251;DHT22;6692;50.710;7.180;2023-04-25T00:17:08;9.20;99.90
13251;DHT22;6692;50.710;7.180;2023-04-25T00:19:09;9.20;99.90
13251;DHT22;6692;50.710;7.180;2023-04-25T00:21:09;9.20;99.90
13251;DHT22;6692;50.710;7.180;2023-04-25T00:23:10;9.10;99.90
13251;DHT22;6692;50.710;7.180;2023-04-25T00:25:11;9.10;99.90
13251;DHT22;6692;50.710;7.180;2023-04-25T00:27:11;9.00;99.90
13251;DHT22;6692;50.710;7.180;2023-04-25T00:29:12;9.00;99.90
13251;DHT22;6692;50.710;7.180;2023-04-25T00:31:13;8.90;99.90
13251;DHT22;6692;50.710;7.180;2023-04-25T00:33:13;8.90;99.90
13251;DHT22;6692;50.710;7.180;2023-04-25T00:35:14;8.90;99.90
13251;DHT22;6692;50.710;7.180;2023-04-25T00:37:15;8.90;99.90
13251;DHT22;6692;50.710;7.180;2023-04-25T00:39:15;8.80;99.90
13251;DHT22;6692;50.710;7.180;2023-04-25T00:41:16;8.80;99.90
13251;DHT22;6692;50.710;7.180;2023-04-25T00:43:17;8.80;99.90
13251;DHT22;6692;50.710;7.180;2023-04-25T00:45:17;8.70;99.90
13251;DHT22;6692;50.710;7.180;2023-04-25T00:47:18;8.70;99.90
13251;DHT22;6692;50.710;7.180;2023-04-25T00:49:18;8.70;99.90
13251;DHT22;6692;50.710;7.180;2023-04-25T00:51:19;8.70;99.90
13251;DHT22;6692;50.710;7.180;2023-04-25T00:53:21;8.70;99.90
13251;DHT22;6692;50.710;7.180;2023-04-25T00:55:22;8.60;99.90
13251;DHT22;6692;50.710;7.180;2023-04-25T00:57:23;8.60;99.90
13251;DHT22;6692;50.710;7.180;2023-04-25T00:59:23;8.60;99.90
13251;DHT22;6692;50.710;7.180;2023-04-25T01:01:24;8.60;99.90
13251;DHT22;6692;50.710;7.180;2023-04-25T01:03:25;8.60;99.90
13251;DHT22;6692;50.710;7.180;2023-04-25T01:05:25;8.50;99.90
13251;DHT22;6692;50.710;7.180;2023-04-25T01:07:26;8.50;99.90
13251;DHT22;6692;50.710;7.180;2023-04-25T01:09:27;8.50;99.90
13251;DHT22;6692;50.710;7.180;2023-04-25T01:11:27;8.50;99.90
13251;DHT22;6692;50.710;7.180;2023-04-25T01:13:28;8.50;99.90
13251;DHT22;6692;50.710;7.180;2023-04-25T01:15:29;8.50;99.90
13251;DHT22;6692;50.710;7.180;2023-04-25T01:17:29;8.50;99.90
13251;DHT22;6692;50.710;7.180;2023-04-25T01:19:30;8.60;99.90
13251;DHT22;6692;50.710;7.180;2023-04-25T01:21:31;8.50;99.90
13251;DHT22;6692;50.710;7.180;2023-04-25T01:23:32;8.50;99.90
13251;DHT22;6692;50.710;7.180;2023-04-25T01:25:33;8.50;99.90
13251;DHT22;6692;50.710;7.180;2023-04-25T01:27:35;8.50;99.90
13251;DHT22;6692;50.710;7.180;2023-04-25T01:29:35;8.40;99.90
13251;DHT22;6692;50.710;7.180;2023-04-25T01:31:36;8.40;99.90
13251;DHT22;6692;50.710;7.180;2023-04-25T01:33:37;8.30;99.90
13251;DHT22;6692;50.710;7.180;2023-04-25T01:35:38;8.30;99.90
13251;DHT22;6692;50.710;7.180;2023-04-25T01:37:40;8.20;99.90
13251;DHT22;6692;50.710;7.180;2023-04-25T01:39:40;8.20;99.90
13251;DHT22;6692;50.710;7.180;2023-04-25T01:41:41;8.20;99.90
13251;DHT22;6692;50.710;7.180;2023-04-25T01:43:41;8.20;99.90
13251;DHT22;6692;50.710;7.180;2023-04-25T01:45:42;8.20;99.90
13251;DHT22;6692;50.710;7.180;2023-04-25T01:47:43;8.10;99.90
13251;DHT22;6692;50.710;7.180;2023-04-25T01:49:43;8.00;99.90
13251;DHT22;6692;50.710;7.180;2023-04-25T01:51:45;8.00;99.90
13251;DHT22;6692;50.710;7.180;2023-04-25T01:53:45;8.00;99.90
13251;DHT22;6692;50.710;7.180;2023-04-25T01:55:46;7.90;99.90
13251;DHT22;6692;50.710;7.180;2023-04-25T01:57:47;8.00;99.90
13251;DHT22;6692;50.710;7.180;2023-04-25T01:59:47;7.90;99.90
13251;DHT22;6692;50.710;7.180;2023-04-25T02:01:48;7.90;99.90
13251;DHT22;6692;50.710;7.180;2023-04-25T02:03:49;7.90;99.90
13251;DHT22;6692;50.710;7.180;2023-04-25T02:05:50;7.80;99.90
13251;DHT22;6692;50.710;7.180;2023-04-25T02:07:51;7.90;99.90
13251;DHT22;6692;50.710;7.180;2023-04-25T02:09:51;7.90;99.90
13251;DHT22;6692;50.710;7.180;2023-04-25T02:11:52;7.90;99.90
13251;DHT22;6692;50.710;7.180;2023-04-25T02:13:53;7.80;99.90
13251;DHT22;6692;50.710;7.180;2023-04-25T02:15:54;7.80;99.90
13251;DHT22;6692;50.710;7.180;2023-04-25T02:17:55;7.90;99.90
13251;DHT22;6692;50.710;7.180;2023-04-25T02:19:55;7.80;99.90
13251;DHT22;6692;50.710;7.180;2023-04-25T02:21:56;7.70;99.90
13251;DHT22;6692;50.710;7.180;2023-04-25T02:23:57;7.60;99.90
13251;DHT22;6692;50.710;7.180;2023-04-25T02:25:58;7.60;99.90
13251;DHT22;6692;50.710;7.180;2023-04-25T02:27:59;7.60;99.90
13251;DHT22;6692;50.710;7.180;2023-04-25T02:30:00;7.70;99.90
13251;DHT22;6692;50.710;7.180;2023-04-25T02:32:00;7.60;99.90
13251;DHT22;6692;50.710;7.180;2023-04-25T02:34:02;7.70;99.90
13251;DHT22;6692;50.710;7.180;2023-04-25T02:36:03;7.70;99.90
13251;DHT22;6692;50.710;7.180;2023-04-25T02:38:04;7.70;99.90
13251;DHT22;6692;50.710;7.180;2023-04-25T02:40:06;7.80;99.90
13251;DHT22;6692;50.710;7.180;2023-04-25T02:42:07;7.80;99.90
13251;DHT22;6692;50.710;7.180;2023-04-25T02:44:07;7.80;99.90
13251;DHT22;6692;50.710;7.180;2023-04-25T02:46:08;7.90;99.90
13251;DHT22;6692;50.710;7.180;2023-04-25T02:48:09;8.00;99.90
13251;DHT22;6692;50.710;7.180;2023-04-25T02:50:09;8.00;99.90
13251;DHT22;6692;50.710;7.180;2023-04-25T02:52:10;8.00;99.90
13251;DHT22;6692;50.710;7.180;2023-04-25T02:54:11;7.90;99.90
13251;DHT22;6692;50.710;7.180;2023-04-25T02:56:11;7.90;99.90
13251;DHT22;6692;50.710;7.180;2023-04-25T02:58:12;8.00;99.90
13251;DHT22;6692;50.710;7.180;2023-04-25T03:00:13;8.00;99.90
13251;DHT22;6692;50.710;7.180;2023-04-25T03:02:14;8.00;99.90
13251;DHT22;6692;50.710;7.180;2023-04-25T03:04:15;8.10;99.90
13251;DHT22;6692;50.710;7.180;2023-04-25T03:06:15;8.10;99.90
13251;DHT22;6692;50.710;7.180;2023-04-25T03:08:16;8.10;99.90
13251;DHT22;6692;50.710;7.180;2023-04-25T03:10:17;8.10;99.90
13251;DHT22;6692;50.710;7.180;2023-04-25T03:12:18;8.10;99.90
13251;DHT22;6692;50.710;7.180;2023-04-25T03:14:19;8.10;99.90
13251;DHT22;6692;50.710;7.180;2023-04-25T03:16:20;8.10;99.90
13251;DHT22;6692;50.710;7.180;2023-04-25T03:18:21;8.10;99.90
13251;DHT22;6692;50.710;7.180;2023-04-25T03:20:21;8.10;99.90
13251;DHT22;6692;50.710;7.180;2023-04-25T03:22:22;8.10;99.90
13251;DHT22;6692;50.710;7.180;2023-04-25T03:24:23;8.10;99.90
13251;DHT22;6692;50.710;7.180;2023-04-25T03:26:23;8.00;99.90
13251;DHT22;6692;50.710;7.180;2023-04-25T03:28:24;8.00;99.90
13251;DHT22;6692;50.710;7.180;2023-04-25T03:30:25;8.00;99.90
13251;DHT22;6692;50.710;7.180;2023-04-25T03:32:26;8.00;99.90
13251;DHT22;6692;50.710;7.180;2023-04-25T03:34:27;8.00;99.90
13251;DHT22;6692;50.710;7.180;2023-04-25T03:36:28;8.00;99.90
13251;DHT22;6692;50.710;7.180;2023-04-25T03:38:29;8.00;99.90
13251;DHT22;6692;50.710;7.180;2023-04-25T03:40:29;8.00;99.90
13251;DHT22;6692;50.710;7.180;2023-04-25T03:42:30;8.00;99.90
13251;DHT22;6692;50.710;7.180;2023-04-25T03:44:31;8.00;99.90
13251;DHT22;6692;50.710;7.180;2023-04-25T03:46:31;8.00;99.90
13251;DHT22;6692;50.710;7.180;2023-04-25T03:48:33;8.00;99.90
13251;DHT22;6692;50.710;7.180;2023-04-25T03:50:34;8.00;99.90
13251;DHT22;6692;50.710;7.180;2023-04-25T03:52:34;8.00;99.90
13251;DHT22;6692;50.710;7.180;2023-04-25T03:54:35;8.00;99.90
13251;DHT22;6692;50.710;7.180;2023-04-25T03:56:35;8.00;99.90
13251;DHT22;6692;50.710;7.180;2023-04-25T03:58:36;8.00;99.90
13251;DHT22;6692;50.710;7.180;2023-04-25T04:00:37;8.00;99.90
13251;DHT22;6692;50.710;7.180;2023-04-25T04:02:37;8.00;99.90
13251;DHT22;6692;50.710;7.180;2023-04-25T04:04:38;8.00;99.90
13251;DHT22;6692;50.710;7.180;2023-04-25T04:06:39;8.00;99.90
13251;DHT22;6692;50.710;7.180;2023-04-25T04:08:39;8.00;99.90
13251;DHT22;6692;50.710;7.180;2023-04-25T04:10:41;8.10;99.90
13251;DHT22;6692;50.710;7.180;2023-04-25T04:12:42;8.10;99.90
13251;DHT22;6692;50.710;7.180;2023-04-25T04:14:43;8.10;99.90
13251;DHT22;6692;50.710;7.180;2023-04-25T04:16:44;8.10;99.90
13251;DHT22;6692;50.710;7.180;2023-04-25T04:18:45;8.20;99.90
13251;DHT22;6692;50.710;7.180;2023-04-25T04:20:45;8.20;99.90
13251;DHT22;6692;50.710;7.180;2023-04-25T04:22:46;8.20;99.90
13251;DHT22;6692;50.710;7.180;2023-04-25T04:24:47;8.10;99.90
13251;DHT22;6692;50.710;7.180;2023-04-25T04:26:48;8.20;99.90
13251;DHT22;6692;50.710;7.180;2023-04-25T04:28:49;8.20;99.90
13251;DHT22;6692;50.710;7.180;2023-04-25T04:30:49;8.20;99.90
13251;DHT22;6692;50.710;7.180;2023-04-25T04:32:50;8.30;99.90
13251;DHT22;6692;50.710;7.180;2023-04-25T04:34:50;8.30;99.90
13251;DHT22;6692;50.710;7.180;2023-04-25T04:36:51;8.30;99.90
13251;DHT22;6692;50.710;7.180;2023-04-25T04:38:52;8.40;99.90
13251;DHT22;6692;50.710;7.180;2023-04-25T04:40:52;8.40;99.90
13251;DHT22;6692;50.710;7.180;2023-04-25T04:42:53;8.40;99.90
13251;DHT22;6692;50.710;7.180;2023-04-25T04:44:54;8.40;99.90
13251;DHT22;6692;50.710;7.180;2023-04-25T04:46:54;8.40;99.90
13251;DHT22;6692;50.710;7.180;2023-04-25T04:48:55;8.40;99.90
13251;DHT22;6692;50.710;7.180;2023-04-25T04:50:56;8.40;99.90
13251;DHT22;6692;50.710;7.180;2023-04-25T04:52:56;8.40;99.90
13251;DHT22;6692;50.710;7.180;2023-04-25T04:54:57;8.50;99.90
13251;DHT22;6692;50.710;7.180;2023-04-25T04:56:58;8.50;99.90
13251;DHT22;6692;50.710;7.180;2023-04-25T04:58:58;8.50;99.90
13251;DHT22;6692;50.710;7.180;2023-04-25T05:00:59;8.40;99.90
13251;DHT22;6692;50.710;7.180;2023-04-25T05:03:00;8.40;99.90
13251;DHT22;6692;50.710;7.180;2023-04-25T05:05:00;8.30;99.90
13251;DHT22;6692;50.710;7.180;2023-04-25T05:07:01;8.40;99.90
13251;DHT22;6692;50.710;7.180;2023-04-25T05:09:02;8.30;99.90
13251;DHT22;6692;50.710;7.180;2023-04-25T05:11:03;8.30;99.90
13251;DHT22;6692;50.710;7.180;2023-04-25T05:13:04;8.30;99.90
13251;DHT22;6692;50.710;7.180;2023-04-25T05:15:06;8.30;99.90
13251;DHT22;6692;50.710;7.180;2023-04-25T05:17:06;8.30;99.90
13251;DHT22;6692;50.710;7.180;2023-04-25T05:19:07;8.30;99.90
13251;DHT22;6692;50.710;7.180;2023-04-25T05:21:08;8.40;99.90
13251;DHT22;6692;50.710;7.180;2023-04-25T05:23:08;8.40;99.90
13251;DHT22;6692;50.710;7.180;2023-04-25T05:25:09;8.40;99.90
13251;DHT22;6692;50.710;7.180;2023-04-25T05:27:10;8.50;99.90
13251;DHT22;6692;50.710;7.180;2023-04-25T05:29:10;8.50;99.90
13251;DHT22;6692;50.710;7.180;2023-04-25T05:31:12;8.60;99.90
13251;DHT22;6692;50.710;7.180;2023-04-25T05:33:12;8.50;99.90
13251;DHT22;6692;50.710;7.180;2023-04-25T05:35:13;8.60;99.90
13251;DHT22;6692;50.710;7.180;2023-04-25T05:37:14;8.50;99.90
13251;DHT22;6692;50.710;7.180;2023-04-25T05:39:15;8.50;99.90
13251;DHT22;6692;50.710;7.180;2023-04-25T05:41:15;8.50;99.90
13251;DHT22;6692;50.710;7.180;2023-04-25T05:43:16;8.50;99.90
13251;DHT22;6692;50.710;7.180;2023-04-25T05:45:17;8.50;99.90
13251;DHT22;6692;50.710;7.180;2023-04-25T05:47:17;8.50;99.90
13251;DHT22;6692;50.710;7.180;2023-04-25T05:49:18;8.50;99.90
13251;DHT22;6692;50.710;7.180;2023-04-25T05:51:19;8.60;99.90
13251;DHT22;6692;50.710;7.180;2023-04-25T05:53:20;8.60;99.90
13251;DHT22;6692;50.710;7.180;2023-04-25T05:55:21;8.60;99.90
13251;DHT22;6692;50.710;7.180;2023-04-25T05:57:22;8.50;99.90
13251;DHT22;6692;50.710;7.180;2023-04-25T05:59:23;8.60;99.90
13251;DHT22;6692;50.710;7.180;2023-04-25T06:01:24;8.60;99.90
13251;DHT22;6692;50.710;7.180;2023-04-25T06:03:24;8.60;99.90
13251;DHT22;6692;50.710;7.180;2023-04-25T06:05:25;8.60;99.90
13251;DHT22;6692;50.710;7.180;2023-04-25T06:07:26;8.60;99.90
13251;DHT22;6692;50.710;7.180;2023-04-25T06:09:27;8.60;99.90
13251;DHT22;6692;50.710;7.180;2023-04-25T06:11:27;8.60;99.90
13251;DHT22;6692;50.710;7.180;2023-04-25T06:13:29;8.70;99.90
13251;DHT22;6692;50.710;7.180;2023-04-25T06:15:29;8.70;99.90
13251;DHT22;6692;50.710;7.180;2023-04-25T06:17:30;8.70;99.90
13251;DHT22;6692;50.710;7.180;2023-04-25T06:19:31;8.70;99.90
13251;DHT22;6692;50.710;7.180;2023-04-25T06:21:31;8.70;99.90
13251;DHT22;6692;50.710;7.180;2023-04-25T06:23:32;8.70;99.90
13251;DHT22;6692;50.710;7.180;2023-04-25T06:25:33;8.70;99.90
13251;DHT22;6692;50.710;7.180;2023-04-25T06:27:34;8.80;99.90
13251;DHT22;6692;50.710;7.180;2023-04-25T06:29:34;8.90;99.90
13251;DHT22;6692;50.710;7.180;2023-04-25T06:31:35;8.90;99.90
13251;DHT22;6692;50.710;7.180;2023-04-25T06:33:35;8.90;99.90
13251;DHT22;6692;50.710;7.180;2023-04-25T06:35:37;9.00;99.90
13251;DHT22;6692;50.710;7.180;2023-04-25T06:37:38;8.90;99.90
13251;DHT22;6692;50.710;7.180;2023-04-25T06:39:40;8.90;99.90
13251;DHT22;6692;50.710;7.180;2023-04-25T06:41:40;8.90;99.90
13251;DHT22;6692;50.710;7.180;2023-04-25T06:43:41;8.90;99.90
13251;DHT22;6692;50.710;7.180;2023-04-25T06:45:41;8.90;99.90
13251;DHT22;6692;50.710;7.180;2023-04-25T06:47:43;8.90;99.90
13251;DHT22;6692;50.710;7.180;2023-04-25T06:49:44;8.90;99.90
13251;DHT22;6692;50.710;7.180;2023-04-25T06:51:44;9.00;99.90
13251;DHT22;6692;50.710;7.180;2023-04-25T06:53:45;9.20;99.90
13251;DHT22;6692;50.710;7.180;2023-04-25T06:55:46;9.30;99.90
13251;DHT22;6692;50.710;7.180;2023-04-25T06:57:47;9.70;99.90
13251;DHT22;6692;50.710;7.180;2023-04-25T06:59:48;9.70;99.90
13251;DHT22;6692;50.710;7.180;2023-04-25T07:01:48;9.90;99.90
13251;DHT22;6692;50.710;7.180;2023-04-25T07:03:49;10.00;99.90
13251;DHT22;6692;50.710;7.180;2023-04-25T07:05:50;10.10;99.90
13251;DHT22;6692;50.710;7.180;2023-04-25T07:07:50;10.20;99.90
13251;DHT22;6692;50.710;7.180;2023-04-25T07:09:51;10.20;99.90
13251;DHT22;6692;50.710;7.180;2023-04-25T07:11:52;10.20;99.90
13251;DHT22;6692;50.710;7.180;2023-04-25T07:13:52;10.20;99.90
13251;DHT22;6692;50.710;7.180;2023-04-25T07:15:54;10.20;99.90
13251;DHT22;6692;50.710;7.180;2023-04-25T07:17:54;10.20;99.90
13251;DHT22;6692;50.710;7.180;2023-04-25T07:19:55;10.30;99.90
13251;DHT22;6692;50.710;7.180;2023-04-25T07:21:56;10.30;99.90
13251;DHT22;6692;50.710;7.180;2023-04-25T07:23:57;10.30;99.90
13251;DHT22;6692;50.710;7.180;2023-04-25T07:25:58;10.30;99.90
13251;DHT22;6692;50.710;7.180;2023-04-25T07:27:59;10.20;99.90
13251;DHT22;6692;50.710;7.180;2023-04-25T07:30:00;10.20;99.90
13251;DHT22;6692;50.710;7.180;2023-04-25T07:32:00;10.20;99.90
13251;DHT22;6692;50.710;7.180;2023-04-25T07:34:01;10.20;99.90
13251;DHT22;6692;50.710;7.180;2023-04-25T07:36:02;10.10;99.90
13251;DHT22;6692;50.710;7.180;2023-04-25T07:38:03;10.00;99.90
13251;DHT22;6692;50.710;7.180;2023-04-25T07:40:04;10.10;99.90
13251;DHT22;6692;50.710;7.180;2023-04-25T07:42:06;10.20;99.90
13251;DHT22;6692;50.710;7.180;2023-04-25T07:44:07;10.10;99.90
13251;DHT22;6692;50.710;7.180;2023-04-25T07:46:07;10.10;99.90
13251;DHT22;6692;50.710;7.180;2023-04-25T07:48:09;9.90;99.90
13251;DHT22;6692;50.710;7.180;2023-04-25T07:50:10;9.90;99.90
13251;DHT22;6692;50.710;7.180;2023-04-25T07:52:10;9.80;99.90
13251;DHT22;6692;50.710;7.180;2023-04-25T07:54:13;9.80;99.90
13251;DHT22;6692;50.710;7.180;2023-04-25T07:56:12;9.70;99.90
13251;DHT22;6692;50.710;7.180;2023-04-25T07:58:13;9.70;99.90
13251;DHT22;6692;50.710;7.180;2023-04-25T08:00:14;9.70;99.90
13251;DHT22;6692;50.710;7.180;2023-04-25T08:02:15;9.70;99.90
13251;DHT22;6692;50.710;7.180;2023-04-25T08:04:16;9.80;99.90
13251;DHT22;6692;50.710;7.180;2023-04-25T08:06:16;9.90;99.90
13251;DHT22;6692;50.710;7.180;2023-04-25T08:08:17;10.00;99.90
13251;DHT22;6692;50.710;7.180;2023-04-25T08:10:18;10.10;99.90
13251;DHT22;6692;50.710;7.180;2023-04-25T08:12:18;10.10;99.90
13251;DHT22;6692;50.710;7.180;2023-04-25T08:14:20;10.20;99.90
13251;DHT22;6692;50.710;7.180;2023-04-25T08:16:20;10.20;99.90
13251;DHT22;6692;50.710;7.180;2023-04-25T08:18:21;10.10;99.90
13251;DHT22;6692;50.710;7.180;2023-04-25T08:20:22;10.10;99.90
13251;DHT22;6692;50.710;7.180;2023-04-25T08:22:23;10.00;99.90
13251;DHT22;6692;50.710;7.180;2023-04-25T08:24:24;10.00;99.90
13251;DHT22;6692;50.710;7.180;2023-04-25T08:26:25;10.00;99.90
13251;DHT22;6692;50.710;7.180;2023-04-25T08:28:25;10.20;99.90
13251;DHT22;6692;50.710;7.180;2023-04-25T08:30:26;10.30;99.90
13251;DHT22;6692;50.710;7.180;2023-04-25T08:32:28;10.20;99.90
13251;DHT22;6692;50.710;7.180;2023-04-25T08:34:28;10.20;99.90
13251;DHT22;6692;50.710;7.180;2023-04-25T08:36:29;10.30;99.90
13251;DHT22;6692;50.710;7.180;2023-04-25T08:38:29;10.30;99.90
13251;DHT22;6692;50.710;7.180;2023-04-25T08:40:30;10.30;99.90
13251;DHT22;6692;50.710;7.180;2023-04-25T08:42:31;10.20;99.90
13251;DHT22;6692;50.710;7.180;2023-04-25T08:44:33;10.00;99.90
13251;DHT22;6692;50.710;7.180;2023-04-25T08:46:33;10.00;99.90
13251;DHT22;6692;50.710;7.180;2023-04-25T08:48:34;9.90;99.90
13251;DHT22;6692;50.710;7.180;2023-04-25T08:50:34;9.90;99.90
13251;DHT22;6692;50.710;7.180;2023-04-25T08:52:36;9.80;99.90
13251;DHT22;6692;50.710;7.180;2023-04-25T08:54:36;9.80;99.90
13251;DHT22;6692;50.710;7.180;2023-04-25T08:56:38;9.80;99.90
13251;DHT22;6692;50.710;7.180;2023-04-25T08:58:38;9.90;99.90
13251;DHT22;6692;50.710;7.180;2023-04-25T09:00:40;10.00;99.90
13251;DHT22;6692;50.710;7.180;2023-04-25T09:02:42;10.00;99.90
13251;DHT22;6692;50.710;7.180;2023-04-25T09:04:43;10.00;99.90
13251;DHT22;6692;50.710;7.180;2023-04-25T09:06:44;10.30;99.90
13251;DHT22;6692;50.710;7.180;2023-04-25T09:08:45;10.20;99.90
13251;DHT22;6692;50.710;7.180;2023-04-25T09:10:45;10.40;99.90
13251;DHT22;6692;50.710;7.180;2023-04-25T09:13:01;10.40;99.90
13251;DHT22;6692;50.710;7.180;2023-04-25T09:17:03;10.60;99.90
13251;DHT22;6692;50.710;7.180;2023-04-25T09:19:03;10.60;99.90
13251;DHT22;6692;50.710;7.180;2023-04-25T09:21:06;10.60;99.90
13251;DHT22;6692;50.710;7.180;2023-04-25T09:23:05;10.50;99.90
13251;DHT22;6692;50.710;7.180;2023-04-25T09:25:09;10.60;99.90
13251;DHT22;6692;50.710;7.180;2023-04-25T09:27:10;10.70;99.90
13251;DHT22;6692;50.710;7.180;2023-04-25T09:29:09;10.80;99.90
13251;DHT22;6692;50.710;7.180;2023-04-25T09:31:11;11.00;99.90
13251;DHT22;6692;50.710;7.180;2023-04-25T09:33:11;11.00;99.90
13251;DHT22;6692;50.710;7.180;2023-04-25T09:35:12;11.20;99.90
13251;DHT22;6692;50.710;7.180;2023-04-25T09:37:16;11.50;99.90
13251;DHT22;6692;50.710;7.180;2023-04-25T09:39:14;11.70;99.90
13251;DHT22;6692;50.710;7.180;2023-04-25T09:41:23;11.60;99.90
13251;DHT22;6692;50.710;7.180;2023-04-25T09:43:19;11.60;99.90
13251;DHT22;6692;50.710;7.180;2023-04-25T09:45:19;11.70;99.90
13251;DHT22;6692;50.710;7.180;2023-04-25T09:47:19;11.60;99.90
13251;DHT22;6692;50.710;7.180;2023-04-25T09:49:21;11.40;99.90
13251;DHT22;6692;50.710;7.180;2023-04-25T09:51:22;11.40;99.90
13251;DHT22;6692;50.710;7.180;2023-04-25T09:53:22;11.30;99.90
13251;DHT22;6692;50.710;7.180;2023-04-25T09:55:23;11.20;99.90
13251;DHT22;6692;50.710;7.180;2023-04-25T09:57:24;11.20;99.90
13251;DHT22;6692;50.710;7.180;2023-04-25T09:59:24;11.20;99.90
13251;DHT22;6692;50.710;7.180;2023-04-25T10:01:25;11.10;99.90
13251;DHT22;6692;50.710;7.180;2023-04-25T10:03:25;11.00;99.10
13251;DHT22;6692;50.710;7.180;2023-04-25T10:05:26;11.00;99.90
13251;DHT22;6692;50.710;7.180;2023-04-25T10:07:29;11.10;99.90
13251;DHT22;6692;50.710;7.180;2023-04-25T10:09:27;11.20;99.90
13251;DHT22;6692;50.710;7.180;2023-04-25T10:11:28;11.30;99.90
13251;DHT22;6692;50.710;7.180;2023-04-25T10:13:29;11.40;99.90
13251;DHT22;6692;50.710;7.180;2023-04-25T10:15:31;11.60;99.60
13251;DHT22;6692;50.710;7.180;2023-04-25T10:17:31;11.60;99.60
13251;DHT22;6692;50.710;7.180;2023-04-25T10:19:32;11.70;99.90
13251;DHT22;6692;50.710;7.180;2023-04-25T10:21:33;11.70;99.90
13251;DHT22;6692;50.710;7.180;2023-04-25T10:23:34;11.80;99.90
13251;DHT22;6692;50.710;7.180;2023-04-25T10:25:36;11.80;98.50
13251;DHT22;6692;50.710;7.180;2023-04-25T10:27:36;11.80;98.50
13251;DHT22;6692;50.710;7.180;2023-04-25T10:29:37;11.70;98.30
13251;DHT22;6692;50.710;7.180;2023-04-25T10:31:46;11.60;98.80
13251;DHT22;6692;50.710;7.180;2023-04-25T10:33:46;11.70;99.90
13251;DHT22;6692;50.710;7.180;2023-04-25T10:35:47;11.70;99.90
13251;DHT22;6692;50.710;7.180;2023-04-25T10:37:57;11.70;99.90
13251;DHT22;6692;50.710;7.180;2023-04-25T10:39:58;11.80;99.90
13251;DHT22;6692;50.710;7.180;2023-04-25T10:41:58;11.70;99.80
13251;DHT22;6692;50.710;7.180;2023-04-25T10:43:59;11.90;99.90
13251;DHT22;6692;50.710;7.180;2023-04-25T10:46:01;12.30;99.90
13251;DHT22;6692;50.710;7.180;2023-04-25T10:48:02;12.40;99.30
13251;DHT22;6692;50.710;7.180;2023-04-25T10:50:04;12.40;99.20
13251;DHT22;6692;50.710;7.180;2023-04-25T10:52:17;12.30;96.90
13251;DHT22;6692;50.710;7.180;2023-04-25T10:54:17;12.30;96.90
13251;DHT22;6692;50.710;7.180;2023-04-25T10:56:19;12.30;98.10
13251;DHT22;6692;50.710;7.180;2023-04-25T10:58:21;12.10;96.50
13251;DHT22;6692;50.710;7.180;2023-04-25T11:00:20;12.00;97.70
13251;DHT22;6692;50.710;7.180;2023-04-25T11:02:21;11.80;98.40
13251;DHT22;6692;50.710;7.180;2023-04-25T11:04:22;11.70;96.60
13251;DHT22;6692;50.710;7.180;2023-04-25T11:06:23;11.50;97.50
13251;DHT22;6692;50.710;7.180;2023-04-25T11:08:28;11.20;98.20
13251;DHT22;6692;50.710;7.180;2023-04-25T11:10:27;11.20;98.20
13251;DHT22;6692;50.710;7.180;2023-04-25T11:12:27;11.10;99.00
13251;DHT22;6692;50.710;7.180;2023-04-25T11:14:27;11.10;99.90
13251;DHT22;6692;50.710;7.180;2023-04-25T11:16:28;11.00;99.90
13251;DHT22;6692;50.710;7.180;2023-04-25T11:18:29;10.90;99.10
13251;DHT22;6692;50.710;7.180;2023-04-25T11:20:29;10.90;99.80
13251;DHT22;6692;50.710;7.180;2023-04-25T11:22:30;10.90;99.30
13251;DHT22;6692;50.710;7.180;2023-04-25T11:24:32;11.00;99.90
13251;DHT22;6692;50.710;7.180;2023-04-25T11:26:32;11.00;99.90
13251;DHT22;6692;50.710;7.180;2023-04-25T11:28:34;11.20;99.90
13251;DHT22;6692;50.710;7.180;2023-04-25T11:30:35;11.30;99.90
13251;DHT22;6692;50.710;7.180;2023-04-25T11:32:36;11.30;99.90
13251;DHT22;6692;50.710;7.180;2023-04-25T11:34:36;11.50;99.90
13251;DHT22;6692;50.710;7.180;2023-04-25T11:36:37;11.70;99.90
13251;DHT22;6692;50.710;7.180;2023-04-25T11:38:38;11.80;99.90
13251;DHT22;6692;50.710;7.180;2023-04-25T11:40:38;12.00;99.90
13251;DHT22;6692;50.710;7.180;2023-04-25T11:42:39;12.20;99.90
13251;DHT22;6692;50.710;7.180;2023-04-25T11:44:40;12.40;99.90
13251;DHT22;6692;50.710;7.180;2023-04-25T11:46:42;12.40;99.90
13251;DHT22;6692;50.710;7.180;2023-04-25T11:48:42;12.40;99.90
13251;DHT22;6692;50.710;7.180;2023-04-25T11:50:43;12.30;99.90
13251;DHT22;6692;50.710;7.180;2023-04-25T11:52:46;12.00;99.90
13251;DHT22;6692;50.710;7.180;2023-04-25T11:54:45;11.90;99.90
13251;DHT22;6692;50.710;7.180;2023-04-25T11:56:46;11.70;99.90
13251;DHT22;6692;50.710;7.180;2023-04-25T11:58:56;11.50;99.90
13251;DHT22;6692;50.710;7.180;2023-04-25T12:00:56;11.30;99.90
13251;DHT22;6692;50.710;7.180;2023-04-25T12:02:57;11.20;99.90
13251;DHT22;6692;50.710;7.180;2023-04-25T12:04:59;11.00;99.90
13251;DHT22;6692;50.710;7.180;2023-04-25T12:06:59;10.80;99.90
13251;DHT22;6692;50.710;7.180;2023-04-25T12:09:01;10.80;99.90
13251;DHT22;6692;50.710;7.180;2023-04-25T12:11:00;10.70;99.90
13251;DHT22;6692;50.710;7.180;2023-04-25T12:13:17;10.60;99.90
13251;DHT22;6692;50.710;7.180;2023-04-25T12:15:09;10.60;99.90
13251;DHT22;6692;50.710;7.180;2023-04-25T12:17:09;10.50;99.90
13251;DHT22;6692;50.710;7.180;2023-04-25T12:19:09;10.60;99.90
13251;DHT22;6692;50.710;7.180;2023-04-25T12:21:10;10.70;99.90
13251;DHT22;6692;50.710;7.180;2023-04-25T12:23:11;10.80;99.90
13251;DHT22;6692;50.710;7.180;2023-04-25T12:25:13;11.00;99.90
13251;DHT22;6692;50.710;7.180;2023-04-25T12:27:14;11.00;99.90
13251;DHT22;6692;50.710;7.180;2023-04-25T12:29:17;11.30;99.70
13251;DHT22;6692;50.710;7.180;2023-04-25T12:31:17;11.30;99.70
13251;DHT22;6692;50.710;7.180;2023-04-25T12:33:17;11.50;98.80
13251;DHT22;6692;50.710;7.180;2023-04-25T12:35:18;11.60;99.90
13251;DHT22;6692;50.710;7.180;2023-04-25T12:37:19;12.10;99.90
13251;DHT22;6692;50.710;7.180;2023-04-25T12:39:21;12.10;99.90
13251;DHT22;6692;50.710;7.180;2023-04-25T12:41:21;12.30;99.20
13251;DHT22;6692;50.710;7.180;2023-04-25T12:43:21;12.40;96.50
13251;DHT22;6692;50.710;7.180;2023-04-25T12:45:22;12.50;97.80
13251;DHT22;6692;50.710;7.180;2023-04-25T12:47:23;12.60;99.20
13251;DHT22;6692;50.710;7.180;2023-04-25T12:49:23;12.70;99.90
13251;DHT22;6692;50.710;7.180;2023-04-25T12:51:24;12.60;96.90
13251;DHT22;6692;50.710;7.180;2023-04-25T12:53:24;12.50;97.60
13251;DHT22;6692;50.710;7.180;2023-04-25T12:55:25;12.40;96.00
13251;DHT22;6692;50.710;7.180;2023-04-25T12:57:26;12.30;95.90
13251;DHT22;6692;50.710;7.180;2023-04-25T12:59:26;12.20;95.50
13251;DHT22;6692;50.710;7.180;2023-04-25T13:01:27;12.00;96.20
13251;DHT22;6692;50.710;7.180;2023-04-25T13:03:28;12.00;95.60
13251;DHT22;6692;50.710;7.180;2023-04-25T13:05:28;12.40;96.20